createdAt,value
2019-02-23T00:00:24.453Z,37.08
2019-02-23T00:02:55.187Z,30.25
2019-02-23T00:05:24.312Z,33.88
2019-02-23T00:07:53.430Z,38.55
2019-02-23T00:10:22.561Z,34.73
2019-02-23T00:12:51.707Z,34.92
2019-02-23T00:15:20.803Z,37.15
2019-02-23T00:17:49.923Z,39.23
2019-02-23T00:20:19.058Z,34.33
2019-02-23T00:22:48.179Z,33.33
2019-02-23T00:25:17.297Z,33.80
2019-02-23T00:27:46.424Z,34.60
2019-02-23T00:30:15.543Z,35.80
2019-02-23T00:32:44.664Z,31.42
2019-02-23T00:35:13.817Z,35.05
2019-02-23T00:37:42.933Z,33.58
2019-02-23T00:40:12.049Z,33.88
2019-02-23T00:42:41.174Z,31.68
2019-02-23T00:45:11.262Z,30.65
2019-02-23T00:47:40.377Z,37.67
2019-02-23T00:50:09.499Z,32.55
2019-02-23T00:52:38.618Z,39.25
2019-02-23T00:55:08.169Z,34.67
2019-02-23T00:57:37.290Z,31.55
2019-02-23T01:00:09.451Z,40.70
2019-02-23T01:02:39.074Z,39.63
2019-02-23T01:05:08.201Z,36.40
2019-02-23T01:07:37.498Z,35.52
2019-02-23T01:10:09.252Z,39.00
2019-02-23T01:12:38.377Z,38.73
2019-02-23T01:15:09.435Z,38.88
2019-02-23T01:17:38.562Z,42.78
2019-02-23T01:20:09.323Z,35.58
2019-02-23T01:22:38.441Z,35.50
2019-02-23T01:25:07.561Z,35.25
2019-02-23T01:27:36.684Z,32.80
2019-02-23T01:30:08.380Z,37.17
2019-02-23T01:32:37.517Z,39.10
2019-02-23T01:35:06.632Z,33.42
2019-02-23T01:37:35.755Z,37.28
2019-02-23T01:40:07.815Z,35.30
2019-02-23T01:42:36.933Z,41.13
2019-02-23T01:45:07.504Z,38.55
2019-02-23T01:47:36.617Z,36.45
2019-02-23T01:50:06.781Z,38.58
2019-02-23T01:52:35.900Z,38.23
2019-02-23T01:55:06.066Z,39.03
2019-02-23T01:57:35.421Z,38.95
2019-02-23T02:00:07.447Z,38.65
2019-02-23T02:02:36.639Z,39.95
2019-02-23T02:05:06.705Z,38.48
2019-02-23T02:07:35.822Z,41.13
2019-02-23T02:10:07.585Z,38.33
2019-02-23T02:12:36.774Z,36.93
2019-02-23T02:15:11.197Z,37.10
2019-02-23T02:17:40.319Z,32.25
2019-02-23T02:20:11.342Z,36.98
2019-02-23T02:22:40.425Z,38.48
2019-02-23T02:25:09.548Z,36.48
2019-02-23T02:27:38.662Z,37.25
2019-02-23T02:30:10.035Z,35.70
2019-02-23T02:32:39.154Z,35.45
2019-02-23T02:35:09.611Z,35.65
2019-02-23T02:37:38.732Z,38.67
2019-02-23T02:40:08.888Z,39.73
2019-02-23T02:42:38.012Z,40.58
2019-02-23T02:45:09.580Z,38.63
2019-02-23T02:47:38.700Z,39.00
2019-02-23T02:50:09.265Z,38.88
2019-02-23T02:52:38.392Z,37.17
2019-02-23T02:55:08.754Z,39.88
2019-02-23T02:57:37.876Z,42.38
2019-02-23T03:00:10.913Z,35.52
2019-02-23T03:02:40.298Z,41.23
2019-02-23T03:05:09.759Z,37.98
2019-02-23T03:07:38.907Z,37.53
2019-02-23T03:10:08.008Z,34.65
2019-02-23T03:12:37.149Z,33.75
2019-02-23T03:15:07.478Z,39.33
2019-02-23T03:17:36.606Z,34.38
2019-02-23T03:20:07.823Z,35.98
2019-02-23T03:22:37.884Z,36.48
2019-02-23T03:25:07.477Z,37.30
2019-02-23T03:27:36.611Z,37.70
2019-02-23T03:30:08.472Z,36.17
2019-02-23T03:32:37.595Z,34.18
2019-02-23T03:35:06.721Z,35.83
2019-02-23T03:37:35.843Z,35.08
2019-02-23T03:40:06.506Z,37.03
2019-02-23T03:42:35.645Z,36.98
2019-02-23T03:45:04.951Z,46.05
2019-02-23T03:47:34.146Z,40.30
2019-02-23T03:50:03.799Z,38.75
2019-02-23T03:52:32.928Z,34.30
2019-02-23T03:55:02.057Z,39.55
2019-02-23T03:57:31.176Z,35.75
2019-02-23T04:00:00.462Z,37.63
2019-02-23T04:02:29.606Z,35.00
2019-02-23T04:04:58.725Z,35.63
2019-02-23T04:07:27.845Z,35.00
2019-02-23T04:09:56.969Z,35.33
2019-02-23T04:12:26.096Z,37.15
2019-02-23T04:14:55.218Z,30.88
2019-02-23T04:17:24.691Z,33.53
2019-02-23T04:19:53.856Z,36.23
2019-02-23T04:22:22.934Z,33.98
2019-02-23T04:24:52.056Z,35.58
2019-02-23T04:27:21.197Z,33.20
2019-02-23T04:29:50.306Z,34.70
2019-02-23T04:32:19.429Z,34.40
2019-02-23T04:34:48.881Z,33.05
2019-02-23T04:37:18.005Z,33.35
2019-02-23T04:39:47.124Z,35.43
2019-02-23T04:42:16.248Z,32.28
2019-02-23T04:44:45.382Z,32.70
2019-02-23T04:47:14.493Z,34.05
2019-02-23T04:49:46.888Z,35.60
2019-02-23T04:52:16.003Z,32.53
2019-02-23T04:54:45.124Z,34.08
2019-02-23T04:57:14.263Z,29.92
2019-02-23T04:59:43.372Z,29.77
2019-02-23T05:02:12.834Z,29.25
2019-02-23T05:04:41.962Z,31.27
2019-02-23T05:07:11.078Z,27.30
2019-02-23T05:09:41.296Z,27.05
2019-02-23T05:12:10.416Z,28.17
2019-02-23T05:14:39.549Z,27.30
2019-02-23T05:17:08.665Z,28.02
2019-02-23T05:19:37.790Z,28.92
2019-02-23T05:22:06.918Z,27.52
2019-02-23T05:24:36.046Z,26.05
2019-02-23T05:27:05.163Z,26.00
2019-02-23T05:29:34.286Z,26.35
2019-02-23T05:32:03.418Z,24.43
2019-02-23T05:34:32.540Z,27.75
2019-02-23T05:37:01.657Z,25.05
2019-02-23T05:39:30.801Z,25.85
2019-02-23T05:41:59.917Z,27.35
2019-02-23T05:44:29.041Z,26.70
2019-02-23T05:46:58.244Z,30.37
2019-02-23T05:49:27.371Z,29.82
2019-02-23T05:51:56.485Z,26.97
2019-02-23T05:54:25.620Z,26.75
2019-02-23T05:56:54.741Z,27.42
2019-02-23T05:59:23.877Z,27.17
2019-02-23T06:01:52.990Z,28.15
2019-02-23T06:04:22.114Z,29.45
2019-02-23T06:06:52.208Z,27.75
2019-02-23T06:09:21.618Z,27.15
2019-02-23T06:11:50.741Z,24.43
2019-02-23T06:14:19.884Z,26.52
2019-02-23T06:16:49.004Z,26.80
2019-02-23T06:19:18.118Z,28.55
2019-02-23T06:21:53.617Z,28.98
2019-02-23T06:24:18.341Z,24.63
2019-02-23T06:26:47.718Z,27.25
2019-02-23T06:29:16.843Z,26.45
2019-02-23T06:31:45.968Z,27.13
2019-02-23T06:34:16.398Z,30.68
2019-02-23T06:36:45.916Z,28.70
2019-02-23T06:39:15.035Z,28.27
2019-02-23T06:41:44.472Z,31.80
2019-02-23T06:44:13.592Z,28.32
2019-02-23T06:46:42.971Z,26.57
2019-02-23T06:49:12.383Z,30.00
2019-02-23T06:51:41.509Z,29.10
2019-02-23T06:54:10.634Z,26.37
2019-02-23T06:56:39.999Z,28.15
2019-02-23T06:59:09.126Z,30.32
2019-02-23T07:01:38.575Z,30.32
2019-02-23T07:04:07.704Z,28.67
2019-02-23T07:06:36.835Z,28.90
2019-02-23T07:09:05.965Z,30.92
2019-02-23T07:11:35.165Z,27.37
2019-02-23T07:14:04.281Z,32.70
2019-02-23T07:16:33.415Z,31.52
2019-02-23T07:19:02.548Z,29.72
2019-02-23T07:21:31.667Z,29.82
2019-02-23T07:24:00.821Z,31.50
2019-02-23T07:26:29.954Z,27.20
2019-02-23T07:28:59.075Z,25.75
2019-02-23T07:31:28.210Z,30.82
2019-02-23T07:33:57.569Z,31.70
2019-02-23T07:36:26.953Z,29.20
2019-02-23T07:38:56.065Z,30.50
2019-02-23T07:41:25.199Z,32.20
2019-02-23T07:43:54.650Z,28.02
2019-02-23T07:46:23.797Z,27.40
2019-02-23T07:48:53.253Z,26.77
2019-02-23T07:51:22.370Z,26.50
2019-02-23T07:53:51.520Z,26.93
2019-02-23T07:56:20.633Z,28.85
2019-02-23T07:58:49.771Z,24.63
2019-02-23T08:01:18.882Z,29.20
2019-02-23T08:03:48.976Z,29.82
2019-02-23T08:06:18.098Z,26.60
2019-02-23T08:08:48.267Z,27.52
2019-02-23T08:11:17.382Z,26.00
2019-02-23T08:13:46.535Z,25.25
2019-02-23T08:16:15.883Z,25.40
2019-02-23T08:18:45.402Z,34.18
2019-02-23T08:21:14.612Z,28.02
2019-02-23T08:23:43.754Z,26.68
2019-02-23T08:26:12.962Z,28.85
2019-02-23T08:28:42.124Z,26.95
2019-02-23T08:31:13.275Z,30.70
2019-02-23T08:33:42.104Z,25.50
2019-02-23T08:36:11.261Z,28.57
2019-02-23T08:38:40.763Z,28.90
2019-02-23T08:41:09.953Z,25.10
2019-02-23T08:43:39.316Z,27.98
2019-02-23T08:46:08.486Z,32.13
2019-02-23T08:48:37.636Z,25.27
2019-02-23T08:51:07.041Z,26.45
2019-02-23T08:53:36.557Z,25.25
2019-02-23T08:56:05.985Z,24.98
2019-02-23T08:58:35.133Z,24.27
2019-02-23T09:01:04.568Z,23.32
2019-02-23T09:03:33.792Z,26.10
2019-02-23T09:06:02.935Z,22.82
2019-02-23T09:08:32.089Z,22.02
2019-02-23T09:11:01.225Z,23.12
2019-02-23T09:13:30.390Z,21.40
2019-02-23T09:15:59.795Z,21.50
2019-02-23T09:18:29.071Z,21.70
2019-02-23T09:20:58.363Z,19.87
2019-02-23T09:23:27.637Z,21.60
2019-02-23T09:25:57.796Z,21.55
2019-02-23T09:28:27.280Z,21.73
2019-02-23T09:30:59.288Z,22.02
2019-02-23T09:33:28.558Z,23.83
2019-02-23T09:35:57.776Z,20.43
2019-02-23T09:38:26.972Z,22.42
2019-02-23T09:40:57.094Z,21.65
2019-02-23T09:43:26.315Z,22.85
2019-02-23T09:45:55.574Z,22.27
2019-02-23T09:48:24.899Z,20.92
2019-02-23T09:50:54.121Z,20.90
2019-02-23T09:53:23.355Z,24.90
2019-02-23T09:55:52.648Z,21.37
2019-02-23T09:58:21.817Z,20.17
2019-02-23T10:00:51.120Z,19.40
2019-02-23T10:03:20.237Z,19.65
2019-02-23T10:05:49.449Z,21.02
2019-02-23T10:08:18.643Z,23.67
2019-02-23T10:10:47.867Z,18.55
2019-02-23T10:13:17.082Z,18.52
2019-02-23T10:15:46.255Z,19.30
2019-02-23T10:18:15.472Z,18.92
2019-02-23T10:20:44.633Z,19.62
2019-02-23T10:23:21.586Z,18.70
2019-02-23T10:25:44.651Z,17.37
2019-02-23T10:28:14.104Z,18.57
2019-02-23T10:30:43.259Z,18.48
2019-02-23T10:33:12.408Z,18.62
2019-02-23T10:35:41.883Z,18.98
2019-02-23T10:38:11.292Z,18.62
2019-02-23T10:40:40.680Z,19.52
2019-02-23T10:43:10.297Z,20.23
2019-02-23T10:45:39.459Z,20.37
2019-02-23T10:48:08.918Z,20.12
2019-02-23T10:50:38.067Z,17.25
2019-02-23T10:53:07.228Z,18.10
2019-02-23T10:55:37.557Z,19.82
2019-02-23T10:58:06.691Z,18.73
2019-02-23T11:00:36.347Z,19.48
2019-02-23T11:03:05.814Z,18.60
2019-02-23T11:05:34.975Z,18.37
2019-02-23T11:08:04.159Z,13.60
2019-02-23T11:10:33.286Z,14.90
2019-02-23T11:13:02.444Z,13.43
2019-02-23T11:15:31.763Z,18.62
2019-02-23T11:18:02.877Z,14.53
2019-02-23T11:20:31.831Z,13.35
2019-02-23T11:23:01.283Z,14.55
2019-02-23T11:25:30.441Z,16.23
2019-02-23T11:27:59.575Z,12.75
2019-02-23T11:30:28.728Z,15.50
2019-02-23T11:32:57.882Z,12.05
2019-02-23T11:35:27.033Z,12.28
2019-02-23T11:37:56.166Z,17.00
2019-02-23T11:40:25.317Z,11.73
2019-02-23T11:42:54.453Z,17.30
2019-02-23T11:45:23.606Z,13.03
2019-02-23T11:47:52.752Z,16.95
2019-02-23T11:50:21.910Z,15.18
2019-02-23T11:52:51.059Z,174.45
2019-02-23T11:55:20.321Z,15.60
2019-02-23T11:57:49.900Z,20.00
2019-02-23T12:00:19.223Z,17.32
2019-02-23T12:02:52.425Z,24.87
2019-02-23T12:05:19.318Z,18.30
2019-02-23T12:07:48.462Z,17.23
2019-02-23T12:10:17.612Z,15.43
2019-02-23T12:12:47.115Z,15.63
2019-02-23T12:15:16.493Z,14.38
2019-02-23T12:17:45.646Z,17.35
2019-02-23T12:20:14.806Z,15.60
2019-02-23T12:24:59.624Z,19.87
2019-02-23T12:27:28.786Z,14.93
2019-02-23T12:29:57.997Z,17.30
2019-02-23T12:32:27.179Z,12.90
2019-02-23T12:34:57.460Z,16.05
2019-02-23T12:37:26.912Z,12.05
2019-02-23T12:39:56.051Z,13.72
2019-02-23T12:42:27.550Z,11.68
2019-02-23T12:44:56.120Z,10.53
2019-02-23T12:47:25.275Z,13.15
2019-02-23T12:49:54.417Z,18.92
2019-02-23T12:52:23.570Z,11.63
2019-02-23T12:54:52.755Z,10.55
2019-02-23T12:57:22.168Z,12.35
2019-02-23T12:59:51.306Z,10.32
2019-02-23T13:02:20.475Z,10.95
2019-02-23T13:04:49.617Z,10.63
2019-02-23T13:07:18.840Z,11.22
2019-02-23T13:09:48.278Z,10.48
2019-02-23T13:12:32.551Z,11.68
2019-02-23T13:15:04.954Z,10.23
2019-02-23T13:17:54.216Z,10.95
2019-02-23T13:20:35.506Z,10.13
2019-02-23T13:23:07.966Z,9.80
2019-02-23T13:25:58.269Z,9.53
2019-02-23T13:28:36.476Z,8.98
2019-02-23T13:31:17.768Z,11.57
2019-02-23T13:34:02.098Z,12.95
2019-02-23T13:36:55.408Z,12.53
2019-02-23T13:39:44.125Z,10.50
2019-02-23T13:42:40.542Z,10.70
2019-02-23T13:45:18.681Z,13.62
2019-02-23T13:48:09.377Z,11.00
2019-02-23T13:51:01.322Z,9.15
2019-02-23T13:53:58.994Z,9.63
2019-02-23T13:56:54.133Z,9.75
2019-02-23T13:59:50.583Z,8.93
2019-02-23T14:02:37.830Z,9.88
2019-02-23T14:05:31.460Z,11.88
2019-02-23T14:08:19.090Z,8.75
2019-02-23T14:11:09.420Z,9.50
2019-02-23T14:13:59.529Z,8.33
2019-02-23T14:16:43.865Z,12.65
2019-02-23T14:19:31.357Z,8.55
2019-02-23T14:22:27.605Z,11.28
2019-02-23T14:25:19.545Z,9.58
2019-02-23T14:28:06.752Z,9.33
2019-02-23T14:30:59.400Z,8.53
2019-02-23T14:34:03.435Z,10.00
2019-02-23T14:36:41.777Z,8.25
2019-02-23T14:39:23.187Z,9.38
2019-02-23T14:42:07.900Z,10.95
2019-02-23T14:45:04.258Z,9.70
2019-02-23T14:47:39.697Z,8.50
2019-02-23T14:50:20.810Z,8.58
2019-02-23T14:52:53.217Z,8.88
2019-02-23T14:55:31.039Z,9.35
2019-02-23T14:58:12.033Z,7.85
2019-02-23T15:00:50.124Z,9.83
2019-02-23T15:03:38.995Z,10.45
2019-02-23T15:06:14.099Z,9.88
2019-02-23T15:08:55.947Z,7.40
2019-02-23T15:11:28.334Z,9.05
2019-02-23T15:14:26.061Z,7.97
2019-02-23T15:17:12.930Z,10.38
2019-02-23T15:20:10.591Z,9.65
2019-02-23T15:22:58.202Z,9.85
2019-02-23T15:25:48.260Z,9.48
2019-02-23T15:28:37.459Z,7.92
2019-02-23T15:31:03.466Z,8.78
2019-02-23T15:33:52.064Z,9.25
2019-02-23T15:36:27.141Z,9.68
2019-02-23T15:39:05.364Z,9.15
2019-02-23T15:41:54.488Z,9.50
2019-02-23T15:44:35.666Z,9.50
2019-02-23T15:47:22.371Z,8.63
2019-02-23T15:49:51.474Z,8.68
2019-02-23T15:52:20.846Z,9.33
2019-02-23T15:54:50.155Z,9.33
2019-02-23T15:57:19.275Z,8.53
2019-02-23T15:59:48.390Z,8.63
2019-02-23T16:02:17.525Z,9.08
2019-02-23T16:04:46.647Z,11.08
2019-02-23T16:07:16.002Z,10.50
2019-02-23T16:09:45.119Z,9.53
2019-02-23T16:12:14.240Z,11.73
2019-02-23T16:14:43.364Z,8.68
2019-02-23T16:17:12.469Z,7.83
2019-02-23T16:19:41.591Z,7.78
2019-02-23T16:22:10.713Z,9.05
2019-02-23T16:24:39.827Z,8.08
2019-02-23T16:27:08.944Z,9.15
2019-02-23T16:29:38.808Z,12.75
2019-02-23T16:32:08.169Z,9.28
2019-02-23T16:34:37.286Z,9.08
2019-02-23T16:37:06.419Z,8.45
2019-02-23T16:39:35.799Z,10.40
2019-02-23T16:42:04.927Z,9.88
2019-02-23T16:44:34.043Z,8.55
2019-02-23T16:47:03.175Z,11.18
2019-02-23T16:49:32.337Z,8.63
2019-02-23T16:52:01.519Z,10.28
2019-02-23T16:54:30.688Z,11.30
2019-02-23T16:57:00.212Z,9.38
2019-02-23T16:59:30.218Z,10.90
2019-02-23T17:01:59.351Z,12.28
2019-02-23T17:04:28.639Z,13.93
2019-02-23T17:06:57.915Z,15.90
2019-02-23T17:09:27.050Z,11.75
2019-02-23T17:11:56.165Z,10.93
2019-02-23T17:14:25.312Z,9.30
2019-02-23T17:16:54.709Z,9.08
2019-02-23T17:19:23.822Z,13.28
2019-02-23T17:21:53.192Z,11.20
2019-02-23T17:24:22.321Z,10.68
2019-02-23T17:26:51.450Z,10.68
2019-02-23T17:29:20.588Z,10.80
2019-02-23T17:31:49.707Z,10.65
2019-02-23T17:34:18.827Z,11.95
2019-02-23T17:36:47.946Z,10.10
2019-02-23T17:39:17.320Z,9.58
2019-02-23T17:41:46.488Z,9.50
2019-02-23T17:44:15.842Z,17.62
2019-02-23T17:46:48.385Z,35.90
2019-02-23T17:49:15.793Z,40.43
2019-02-23T17:51:45.152Z,37.38
2019-02-23T17:54:14.510Z,39.73
2019-02-23T17:56:43.940Z,15.70
2019-02-23T17:59:14.042Z,14.98
2019-02-23T18:01:43.171Z,19.02
2019-02-23T18:04:12.320Z,20.62
2019-02-23T18:06:41.456Z,18.82
2019-02-23T18:09:10.582Z,13.62
2019-02-23T18:11:40.007Z,13.85
2019-02-23T18:14:09.373Z,12.58
2019-02-23T18:16:38.752Z,12.18
2019-02-23T18:19:07.881Z,13.62
2019-02-23T18:21:37.073Z,10.88
2019-02-23T18:24:06.330Z,11.93
2019-02-23T18:26:35.447Z,11.20
2019-02-23T18:29:04.565Z,9.98
2019-02-23T18:31:33.996Z,14.13
2019-02-23T18:34:03.417Z,12.75
2019-02-23T18:36:32.598Z,11.12
2019-02-23T18:39:01.717Z,11.70
2019-02-23T18:41:32.464Z,12.47
2019-02-23T18:44:01.583Z,12.70
2019-02-23T18:46:30.874Z,13.20
2019-02-23T18:49:00.000Z,11.65
2019-02-23T18:51:29.187Z,10.60
2019-02-23T18:53:58.359Z,10.38
2019-02-23T18:56:29.666Z,14.28
2019-02-23T18:58:58.309Z,12.00
2019-02-23T19:01:27.418Z,12.18
2019-02-23T19:03:56.797Z,10.10
2019-02-23T19:06:25.977Z,11.03
2019-02-23T19:08:55.346Z,15.13
2019-02-23T19:11:24.465Z,13.62
2019-02-23T19:13:53.825Z,14.25
2019-02-23T19:16:23.445Z,12.85
2019-02-23T19:18:52.554Z,13.13
2019-02-23T19:21:21.670Z,13.48
2019-02-23T19:23:50.871Z,13.08
2019-02-23T19:26:19.987Z,12.90
2019-02-23T19:28:49.345Z,12.78
2019-02-23T19:31:18.684Z,14.03
2019-02-23T19:33:47.882Z,15.00
2019-02-23T19:36:16.997Z,12.25
2019-02-23T19:38:46.124Z,11.63
2019-02-23T19:41:15.227Z,11.63
2019-02-23T19:43:44.360Z,11.43
2019-02-23T19:46:13.476Z,13.90
2019-02-23T19:48:42.670Z,12.50
2019-02-23T19:51:11.780Z,12.73
2019-02-23T19:53:42.013Z,13.05
2019-02-23T19:56:11.164Z,14.70
2019-02-23T19:58:40.772Z,14.28
2019-02-23T20:01:10.984Z,12.63
2019-02-23T20:03:40.610Z,12.20
2019-02-23T20:06:09.776Z,12.65
2019-02-23T20:08:38.967Z,13.40
2019-02-23T20:11:08.122Z,12.98
2019-02-23T20:13:37.463Z,12.88
2019-02-23T20:16:06.584Z,15.58
2019-02-23T20:18:35.781Z,13.80
2019-02-23T20:21:04.897Z,16.95
2019-02-23T20:23:34.178Z,14.75
2019-02-23T20:26:03.305Z,14.45
2019-02-23T20:28:32.504Z,16.77
2019-02-23T20:31:01.617Z,17.40
2019-02-23T20:33:30.986Z,22.82
2019-02-23T20:36:00.114Z,22.93
2019-02-23T20:38:29.239Z,24.25
2019-02-23T20:40:58.371Z,16.45
2019-02-23T20:43:27.488Z,14.73
2019-02-23T20:45:56.615Z,14.68
2019-02-23T20:48:25.976Z,14.33
2019-02-23T20:50:55.103Z,14.58
2019-02-23T20:53:24.496Z,16.12
2019-02-23T20:55:53.629Z,17.62
2019-02-23T20:58:22.752Z,14.63
2019-02-23T21:00:51.885Z,15.28
2019-02-23T21:03:21.001Z,15.60
2019-02-23T21:05:50.128Z,14.58
2019-02-23T21:08:19.245Z,18.35
2019-02-23T21:10:48.678Z,16.67
2019-02-23T21:13:17.793Z,18.35
2019-02-23T21:15:46.912Z,17.80
2019-02-23T21:18:16.028Z,16.87
2019-02-23T21:20:45.151Z,17.27
2019-02-23T21:23:14.270Z,18.92
2019-02-23T21:25:43.403Z,21.95
2019-02-23T21:28:12.532Z,27.67
2019-02-23T21:30:41.651Z,22.82
2019-02-23T21:33:10.780Z,25.15
2019-02-23T21:35:39.969Z,20.08
2019-02-23T21:38:09.116Z,17.62
2019-02-23T21:40:38.234Z,14.90
2019-02-23T21:43:07.359Z,17.70
2019-02-23T21:45:36.473Z,15.00
2019-02-23T21:48:05.608Z,17.85
2019-02-23T21:50:34.724Z,15.93
2019-02-23T21:53:03.923Z,15.85
2019-02-23T21:55:34.110Z,15.78
2019-02-23T21:58:03.371Z,15.68
2019-02-23T22:00:32.570Z,15.75
2019-02-23T22:03:01.931Z,14.50
2019-02-23T22:05:31.054Z,16.42
2019-02-23T22:08:00.569Z,17.32
2019-02-23T22:10:29.756Z,17.50
2019-02-23T22:12:58.881Z,19.95
2019-02-23T22:15:28.251Z,17.57
2019-02-23T22:17:57.701Z,17.50
2019-02-23T22:20:26.849Z,17.10
2019-02-23T22:22:55.994Z,17.73
2019-02-23T22:25:25.129Z,18.37
2019-02-23T22:27:54.553Z,21.55
2019-02-23T22:30:23.684Z,18.55
2019-02-23T22:32:52.803Z,16.62
2019-02-23T22:35:21.937Z,15.25
2019-02-23T22:37:51.050Z,18.70
2019-02-23T22:40:20.169Z,16.67
2019-02-23T22:42:49.291Z,16.87
2019-02-23T22:45:19.483Z,20.75
2019-02-23T22:47:48.602Z,17.85
2019-02-23T22:50:17.867Z,17.73
2019-02-23T22:52:47.225Z,16.07
2019-02-23T22:55:16.410Z,19.98
2019-02-23T22:57:45.499Z,16.05
2019-02-23T23:00:16.507Z,16.93
2019-02-23T23:02:47.281Z,15.65
2019-02-23T23:05:16.485Z,15.75
2019-02-23T23:07:45.642Z,16.02
2019-02-23T23:10:15.981Z,16.10
2019-02-23T23:12:45.110Z,18.10
2019-02-23T23:15:14.231Z,15.28
2019-02-23T23:17:43.578Z,17.70
2019-02-23T23:20:12.768Z,16.97
2019-02-23T23:22:41.891Z,14.47
2019-02-23T23:25:11.078Z,16.48
2019-02-23T23:27:48.921Z,19.17
2019-02-23T23:30:11.918Z,14.50
2019-02-23T23:32:41.503Z,15.10
2019-02-23T23:35:10.575Z,15.95
2019-02-23T23:37:39.697Z,13.58
2019-02-23T23:40:08.841Z,14.50
2019-02-23T23:42:38.129Z,15.83
2019-02-23T23:45:07.384Z,16.25
2019-02-23T23:47:38.645Z,17.80
2019-02-23T23:50:09.386Z,14.97
2019-02-23T23:52:38.508Z,15.55
2019-02-23T23:55:07.636Z,15.13
2019-02-23T23:57:37.078Z,16.23
